Time;durP1;ratioP1;P1;durP2;ratioP2;P2;SDS_P1;SDS_P2;PMS_P1;PMS_P2;Temp;Humidity;BMP_temperature;BMP_pressure;BME280_temperature;BME280_humidity;BME280_pressure;Samples;Min_cycle;Max_cycle;Signal;HPM_P1;HPM_P2
2023/05/01 00:01:33;;;;;;;;;;;;;;;13.43;62.05;92547.56;2034976;70;20138;-73
2023/05/01 00:03:59;;;;;;;;;;;;;;;13.41;61.84;92542.53;2034821;70;20213;-73
2023/05/01 00:06:25;;;;;;;;;;;;;;;13.40;62.31;92537.50;2034956;70;20048;-74
2023/05/01 00:08:50;;;;;;;;;;;;;;;13.42;61.78;92537.59;2035011;70;20162;-73
2023/05/01 00:11:16;;;;;;;;;;;;;;;13.42;62.15;92535.53;2035255;70;20554;-73
2023/05/01 00:13:41;;;;;;;;;;;;;;;13.33;61.82;92532.91;2035165;70;20486;-73
2023/05/01 00:16:11;;;;;;;;;;;;;;;13.29;61.86;92527.81;2035382;70;20095;-73
2023/05/01 00:18:37;;;;;;;;;;;;;;;13.35;62.22;92533.75;2035176;70;20084;-73
2023/05/01 00:21:03;;;;;;;;;;;;;;;13.35;61.18;92533.03;2035283;70;20484;-73
2023/05/01 00:23:28;;;;;;;;;;;;;;;13.15;62.73;92527.84;2035138;70;20101;-74
2023/05/01 00:25:53;;;;;;;;;;;;;;;13.22;62.28;92532.44;2035226;70;20474;-73
2023/05/01 00:28:19;;;;;;;;;;;;;;;13.28;62.24;92523.50;2031769;70;20049;-73
2023/05/01 00:30:45;;;;;;;;;;;;;;;13.13;63.00;92527.00;2031762;70;20155;-73
2023/05/01 00:33:11;;;;;;;;;;;;;;;13.16;62.26;92526.47;2035634;70;20139;-73
2023/05/01 00:35:36;;;;;;;;;;;;;;;13.22;62.50;92523.22;2031545;70;20076;-73
2023/05/01 00:38:02;;;;;;;;;;;;;;;13.14;62.29;92520.72;2031616;70;20053;-73
2023/05/01 00:40:28;;;;;;;;;;;;;;;13.00;63.48;92517.19;2035361;70;20125;-73
2023/05/01 00:42:53;;;;;;;;;;;;;;;12.95;62.77;92513.44;2031685;70;20084;-73
2023/05/01 00:45:19;;;;;;;;;;;;;;;13.12;61.31;92517.06;2035176;70;20059;-73
2023/05/01 00:47:45;;;;;;;;;;;;;;;13.05;62.86;92518.13;2034457;70;20099;-73
2023/05/01 00:50:14;;;;;;;;;;;;;;;12.95;63.42;92513.44;2041242;70;20131;-73
2023/05/01 00:52:39;;;;;;;;;;;;;;;12.98;63.24;92517.09;2034896;70;20063;-73
2023/05/01 00:55:05;;;;;;;;;;;;;;;13.11;62.86;92516.34;2041385;70;20487;-73
2023/05/01 00:57:32;;;;;;;;;;;;;;;12.88;63.91;92513.78;2037956;70;20055;-73
2023/05/01 00:59:57;;;;;;;;;;;;;;;12.85;63.15;92510.13;2037947;70;20055;-73
2023/05/01 01:02:23;;;;;;;;;;;;;;;12.90;63.22;92505.41;2037528;70;20060;-73
2023/05/01 01:04:49;;;;;;;;;;;;;;;12.86;63.07;92503.09;2040774;70;20056;-72
2023/05/01 01:07:23;;;;;;;;;;;;;;;13.01;62.67;92507.34;2041241;70;20062;-73
2023/05/01 01:09:58;;;;;;;;;;;;;;;12.98;63.30;92502.97;2041640;70;20052;-73
2023/05/01 01:12:38;;;;;;;;;;;;;;;13.09;62.52;92496.44;2037887;70;20052;-74
2023/05/01 01:15:21;;;;;;;;;;;;;;;12.96;63.35;92500.03;2041840;70;20091;-74
2023/05/01 01:17:54;;;;;;;;;;;;;;;12.77;64.03;92494.88;2037922;70;20469;-73
2023/05/01 01:20:31;;;;;;;;;;;;;;;12.77;64.56;92489.22;2037158;70;20088;-73
2023/05/01 01:23:12;;;;;;;;;;;;;;;12.84;63.61;92488.16;2038164;70;20059;-74
2023/05/01 01:25:47;;;;;;;;;;;;;;;12.77;64.88;92492.78;2041656;70;20424;-74
2023/05/01 01:28:13;;;;;;;;;;;;;;;12.80;64.35;92487.97;2038107;70;20062;-74
2023/05/01 01:30:39;;;;;;;;;;;;;;;12.82;63.62;92493.69;2041259;70;20424;-74
2023/05/01 01:33:08;;;;;;;;;;;;;;;12.91;63.06;92482.16;2037557;70;20059;-73
2023/05/01 01:35:35;;;;;;;;;;;;;;;12.83;63.26;92478.97;2040936;70;20459;-74
2023/05/01 01:38:08;;;;;;;;;;;;;;;12.74;64.07;92479.94;2041547;70;20079;-74
2023/05/01 01:40:37;;;;;;;;;;;;;;;12.71;64.24;92473.44;2041372;70;20059;-73
2023/05/01 01:43:09;;;;;;;;;;;;;;;12.70;65.05;92474.06;2041205;70;20146;-73
2023/05/01 01:45:39;;;;;;;;;;;;;;;12.75;64.74;92484.22;2041606;70;20059;-73
2023/05/01 01:48:12;;;;;;;;;;;;;;;12.63;64.98;92477.94;2035508;70;20060;-73
2023/05/01 01:50:39;;;;;;;;;;;;;;;12.70;64.61;92479.72;2038181;70;20052;-73
2023/05/01 01:53:10;;;;;;;;;;;;;;;12.45;65.66;92478.50;2037784;70;20150;-73
2023/05/01 01:55:39;;;;;;;;;;;;;;;12.26;65.82;92476.13;2041753;70;20083;-73
2023/05/01 01:58:05;;;;;;;;;;;;;;;12.40;65.41;92481.75;2041656;70;20050;-73
2023/05/01 02:00:33;;;;;;;;;;;;;;;12.54;64.56;92484.56;2041579;70;20067;-73
2023/05/01 02:03:01;;;;;;;;;;;;;;;12.54;65.06;92476.09;2037998;70;20166;-72
2023/05/01 02:05:27;;;;;;;;;;;;;;;12.53;65.61;92478.19;2038000;70;20074;-73
2023/05/01 02:07:54;;;;;;;;;;;;;;;12.56;64.62;92473.38;2038168;70;20493;-74
2023/05/01 02:10:22;;;;;;;;;;;;;;;12.44;65.27;92468.56;2041636;70;20064;-73
2023/05/01 02:12:50;;;;;;;;;;;;;;;12.50;65.15;92470.97;2041788;70;20060;-72
2023/05/01 02:15:17;;;;;;;;;;;;;;;12.52;65.54;92453.41;2041599;70;20064;-73
2023/05/01 02:17:44;;;;;;;;;;;;;;;12.57;64.31;92464.28;2038055;70;20059;-74
2023/05/01 02:20:11;;;;;;;;;;;;;;;12.51;64.86;92463.22;2041582;70;20589;-74
2023/05/01 02:22:41;;;;;;;;;;;;;;;12.62;64.35;92462.38;2037981;70;20205;-73
2023/05/01 02:25:11;;;;;;;;;;;;;;;12.61;64.54;92452.44;2041386;70;20397;-74
2023/05/01 02:27:39;;;;;;;;;;;;;;;12.46;65.57;92460.22;2041667;70;20052;-74
2023/05/01 02:30:06;;;;;;;;;;;;;;;12.55;65.17;92452.13;2041764;70;20051;-73
2023/05/01 02:32:32;;;;;;;;;;;;;;;12.56;65.08;92460.00;2041633;70;20147;-74
2023/05/01 02:34:59;;;;;;;;;;;;;;;12.55;64.87;92452.13;2038103;70;20052;-74
2023/05/01 02:37:31;;;;;;;;;;;;;;;12.55;64.86;92447.22;2037969;70;20064;-73
2023/05/01 02:39:57;;;;;;;;;;;;;;;12.50;65.56;92451.19;2037919;70;20055;-72
2023/05/01 02:42:24;;;;;;;;;;;;;;;12.52;64.82;92451.31;2037949;70;20060;-73
2023/05/01 02:44:57;;;;;;;;;;;;;;;12.34;65.66;92450.41;2037775;70;20197;-73
2023/05/01 02:47:23;;;;;;;;;;;;;;;12.32;65.54;92453.84;2037917;70;20163;-73
2023/05/01 02:49:50;;;;;;;;;;;;;;;12.33;65.51;92446.84;2041484;70;20066;-73
2023/05/01 02:52:18;;;;;;;;;;;;;;;12.53;64.19;92446.41;2035225;70;20055;-73
2023/05/01 02:54:48;;;;;;;;;;;;;;;12.50;65.23;92445.56;2037931;70;20109;-73
2023/05/01 02:57:20;;;;;;;;;;;;;;;12.44;66.03;92443.16;2041642;70;20155;-73
2023/05/01 02:59:47;;;;;;;;;;;;;;;12.41;66.71;92435.94;2041616;70;20119;-74
2023/05/01 03:02:14;;;;;;;;;;;;;;;12.59;64.79;92436.13;2041451;70;20147;-73
2023/05/01 03:04:42;;;;;;;;;;;;;;;12.45;66.01;92432.59;2041478;70;20127;-73
2023/05/01 03:07:12;;;;;;;;;;;;;;;12.24;67.00;92435.78;2041323;70;20087;-73
2023/05/01 03:09:38;;;;;;;;;;;;;;;12.05;67.69;92432.03;2037829;70;20182;-73
2023/05/01 03:12:03;;;;;;;;;;;;;;;12.30;66.07;92428.34;2041362;70;20142;-73
2023/05/01 03:14:29;;;;;;;;;;;;;;;12.41;65.79;92430.28;2035191;70;20067;-73
2023/05/01 03:16:55;;;;;;;;;;;;;;;12.37;66.72;92427.31;2041485;70;20170;-74
2023/05/01 03:19:21;;;;;;;;;;;;;;;12.48;65.27;92422.16;2040605;70;20119;-74
2023/05/01 03:21:47;;;;;;;;;;;;;;;12.49;65.39;92429.25;2038066;70;20119;-73
2023/05/01 03:24:13;;;;;;;;;;;;;;;12.51;65.49;92429.34;2041554;70;20063;-74
2023/05/01 03:26:39;;;;;;;;;;;;;;;12.55;64.77;92430.28;2038040;70;20489;-74
2023/05/01 03:29:06;;;;;;;;;;;;;;;12.53;66.24;92418.16;2038132;70;20106;-73
2023/05/01 03:31:33;;;;;;;;;;;;;;;12.46;66.80;92425.59;2041442;70;20127;-74
2023/05/01 03:34:01;;;;;;;;;;;;;;;12.44;66.71;92414.19;2035309;70;20469;-73
2023/05/01 03:36:27;;;;;;;;;;;;;;;12.50;66.08;92422.25;2041235;70;20063;-72
2023/05/01 03:38:53;;;;;;;;;;;;;;;12.40;66.69;92420.38;2037470;70;20059;-73
2023/05/01 03:41:37;;;;;;;;;;;;;;;12.47;65.22;92421.41;2038385;70;20063;-73
2023/05/01 03:44:18;;;;;;;;;;;;;;;12.56;64.92;92423.28;2037997;70;20588;-73
2023/05/01 03:46:44;;;;;;;;;;;;;;;12.49;65.33;92418.69;2038258;70;20048;-73
2023/05/01 03:49:17;;;;;;;;;;;;;;;12.32;66.44;92419.97;2038185;70;20116;-73
2023/05/01 03:51:46;;;;;;;;;;;;;;;12.25;66.94;92415.41;2038226;70;20131;-73
2023/05/01 03:54:12;;;;;;;;;;;;;;;12.37;66.28;92416.00;2041338;70;20162;-73
2023/05/01 03:56:53;;;;;;;;;;;;;;;12.43;65.82;92419.13;2038350;70;20055;-73
2023/05/01 03:59:19;;;;;;;;;;;;;;;12.39;67.26;92412.53;2035365;70;20088;-74
2023/05/01 04:01:45;;;;;;;;;;;;;;;12.44;65.98;92417.75;2038280;70;20087;-73
2023/05/01 04:04:10;;;;;;;;;;;;;;;12.13;68.27;92418.31;2041638;70;20127;-73
2023/05/01 04:06:39;;;;;;;;;;;;;;;12.38;66.30;92416.72;2038109;70;20067;-73
2023/05/01 04:09:05;;;;;;;;;;;;;;;12.43;66.18;92410.66;2037900;70;20054;-74
2023/05/01 04:11:31;;;;;;;;;;;;;;;12.38;66.43;92420.28;2038042;70;20048;-74
2023/05/01 04:13:56;;;;;;;;;;;;;;;12.38;66.47;92420.28;2042255;70;20098;-74
2023/05/01 04:16:22;;;;;;;;;;;;;;;12.40;66.77;92417.56;2035646;70;20123;-74
2023/05/01 04:18:47;;;;;;;;;;;;;;;12.32;66.77;92422.06;2038366;70;20087;-74
2023/05/01 04:21:14;;;;;;;;;;;;;;;11.90;69.03;92416.47;2038292;70;20475;-74
2023/05/01 04:23:39;;;;;;;;;;;;;;;12.07;67.51;92422.94;2038119;70;20154;-72
2023/05/01 04:26:05;;;;;;;;;;;;;;;12.11;67.79;92417.50;2035621;70;20087;-73
2023/05/01 04:28:31;;;;;;;;;;;;;;;12.32;66.13;92422.78;2041782;70;20075;-73
2023/05/01 04:30:57;;;;;;;;;;;;;;;12.36;65.85;92417.34;2038210;70;20055;-73
2023/05/01 04:33:22;;;;;;;;;;;;;;;12.37;66.39;92415.25;2035537;70;20048;-74
2023/05/01 04:35:48;;;;;;;;;;;;;;;12.40;66.30;92423.19;2035417;70;20056;-73
2023/05/01 04:38:14;;;;;;;;;;;;;;;12.35;66.58;92426.47;2038037;70;20058;-73
2023/05/01 04:40:40;;;;;;;;;;;;;;;12.43;66.13;92412.75;2035461;70;20122;-74
2023/05/01 04:43:05;;;;;;;;;;;;;;;12.49;65.76;92418.69;2041914;70;20056;-74
2023/05/01 04:45:31;;;;;;;;;;;;;;;12.49;65.69;92420.78;2038132;70;20428;-74
2023/05/01 04:47:57;;;;;;;;;;;;;;;12.51;66.10;92423.69;2038104;70;20142;-74
2023/05/01 04:50:22;;;;;;;;;;;;;;;12.53;65.65;92423.81;2038258;70;20471;-75
2023/05/01 04:52:48;;;;;;;;;;;;;;;12.56;66.78;92431.03;2038274;70;20270;-74
2023/05/01 04:55:14;;;;;;;;;;;;;;;12.57;67.29;92430.38;2038230;70;20058;-74
2023/05/01 04:57:56;;;;;;;;;;;;;;;12.47;66.86;92432.72;2038382;70;20048;-74
2023/05/01 05:00:22;;;;;;;;;;;;;;;12.40;66.92;92431.66;2038190;70;20055;-74
2023/05/01 05:02:53;;;;;;;;;;;;;;;12.49;65.37;92434.91;2038144;70;20066;-74
2023/05/01 05:05:18;;;;;;;;;;;;;;;12.70;65.29;92431.72;2038045;70;20047;-74
2023/05/01 05:07:44;;;;;;;;;;;;;;;12.79;65.60;92430.00;2038193;70;20174;-73
2023/05/01 05:10:24;;;;;;;;;;;;;;;12.91;65.71;92436.97;2041757;70;20062;-73
2023/05/01 05:13:04;;;;;;;;;;;;;;;12.95;66.08;92430.78;2038211;70;20048;-73
2023/05/01 05:15:30;;;;;;;;;;;;;;;13.01;65.27;92427.50;2038048;70;20123;-73
2023/05/01 05:17:55;;;;;;;;;;;;;;;13.06;65.25;92441.22;2038034;70;20503;-74
2023/05/01 05:20:21;;;;;;;;;;;;;;;12.93;65.73;92442.00;2038133;70;20083;-74
2023/05/01 05:22:46;;;;;;;;;;;;;;;13.05;65.22;92436.19;2038124;70;20104;-74
2023/05/01 05:25:19;;;;;;;;;;;;;;;13.27;64.56;92439.34;2035518;70;20648;-74
2023/05/01 05:27:44;;;;;;;;;;;;;;;13.21;65.66;92431.31;2035347;70;20147;-73
2023/05/01 05:30:10;;;;;;;;;;;;;;;13.30;66.01;92430.34;2041710;70;20491;-74
2023/05/01 05:32:36;;;;;;;;;;;;;;;13.38;65.16;92424.34;2035349;70;20067;-74
2023/05/01 05:35:02;;;;;;;;;;;;;;;13.40;65.00;92430.81;2035205;70;20055;-74
2023/05/01 05:37:27;;;;;;;;;;;;;;;13.18;65.47;92430.47;2041716;70;20054;-74
2023/05/01 05:39:54;;;;;;;;;;;;;;;13.22;65.12;92425.03;2037898;70;20052;-74
2023/05/01 05:42:19;;;;;;;;;;;;;;;13.36;64.32;92424.97;2041538;70;20123;-74
2023/05/01 05:44:46;;;;;;;;;;;;;;;13.40;63.86;92425.16;2041551;70;20175;-73
2023/05/01 05:47:12;;;;;;;;;;;;;;;13.35;64.50;92431.25;2041713;70;20564;-74
2023/05/01 05:49:37;;;;;;;;;;;;;;;13.25;64.40;92437.16;2041823;70;20064;-74
2023/05/01 05:52:03;;;;;;;;;;;;;;;13.41;64.47;92423.78;2038028;70;20043;-74
2023/05/01 05:54:29;;;;;;;;;;;;;;;13.56;63.42;92421.59;2038048;70;20410;-74
2023/05/01 05:56:54;;;;;;;;;;;;;;;13.59;63.66;92425.97;2035448;70;20485;-75
2023/05/01 05:59:20;;;;;;;;;;;;;;;13.72;64.15;92425.88;2038248;70;20055;-74
2023/05/01 06:01:46;;;;;;;;;;;;;;;13.43;64.14;92421.06;2037904;70;20048;-73
2023/05/01 06:04:13;;;;;;;;;;;;;;;13.67;63.62;92423.53;2038048;70;20051;-74
2023/05/01 06:06:40;;;;;;;;;;;;;;;13.77;63.60;92420.41;2035283;70;20160;-73
2023/05/01 06:09:07;;;;;;;;;;;;;;;13.77;63.88;92415.47;2041564;70;20055;-73
2023/05/01 06:11:32;;;;;;;;;;;;;;;13.88;62.74;92416.66;2041778;70;20055;-73
2023/05/01 06:13:59;;;;;;;;;;;;;;;13.89;62.07;92421.69;2037937;70;20051;-73
2023/05/01 06:16:25;;;;;;;;;;;;;;;13.86;62.86;92411.63;2035417;70;20142;-74
2023/05/01 06:18:51;;;;;;;;;;;;;;;14.03;63.41;92409.53;2041769;70;20060;-75
2023/05/01 06:21:17;;;;;;;;;;;;;;;14.11;60.82;92415.53;2037933;70;20048;-73
2023/05/01 06:23:43;;;;;;;;;;;;;;;14.15;62.22;92407.94;2037759;70;20055;-73
2023/05/01 06:26:20;;;;;;;;;;;;;;;14.11;62.05;92410.63;2041618;70;20529;-74
2023/05/01 06:28:45;;;;;;;;;;;;;;;14.07;61.36;92410.44;2037993;70;20050;-74
2023/05/01 06:31:11;;;;;;;;;;;;;;;14.21;60.55;92404.66;2041673;70;20055;-76
2023/05/01 06:33:42;;;;;;;;;;;;;;;14.29;60.48;92404.25;2038059;70;20377;-75
2023/05/01 06:36:18;;;;;;;;;;;;;;;14.13;59.74;92407.13;2037946;70;20487;-75
2023/05/01 06:38:47;;;;;;;;;;;;;;;14.15;60.21;92404.38;2035089;70;20056;-76
2023/05/01 06:41:14;;;;;;;;;;;;;;;13.81;61.43;92403.63;2038295;70;20463;-76
2023/05/01 06:43:39;;;;;;;;;;;;;;;13.86;62.29;92408.09;2037923;70;20488;-73
2023/05/01 06:46:05;;;;;;;;;;;;;;;14.24;60.85;92411.84;2041370;70;20159;-73
2023/05/01 06:48:30;;;;;;;;;;;;;;;14.18;61.50;92411.59;2035241;70;20098;-73
2023/05/01 06:50:56;;;;;;;;;;;;;;;14.23;61.95;92404.72;2037909;70;20058;-74
2023/05/01 06:53:21;;;;;;;;;;;;;;;14.03;62.99;92412.34;2037738;70;20059;-74
2023/05/01 06:55:47;;;;;;;;;;;;;;;14.27;62.17;92415.50;2041635;70;20116;-74
2023/05/01 06:58:12;;;;;;;;;;;;;;;14.47;62.95;92413.50;2041507;70;20043;-73
2023/05/01 07:00:38;;;;;;;;;;;;;;;14.30;62.01;92414.94;2037799;70;20047;-74
2023/05/01 07:03:03;;;;;;;;;;;;;;;14.23;61.95;92416.06;2038013;70;20147;-74
2023/05/01 07:05:29;;;;;;;;;;;;;;;13.90;63.14;92419.59;2037830;70;20083;-74
2023/05/01 07:07:54;;;;;;;;;;;;;;;13.61;63.33;92423.97;2037761;70;20489;-75
2023/05/01 07:10:20;;;;;;;;;;;;;;;13.96;62.60;92417.00;2041741;70;20048;-74
2023/05/01 07:12:46;;;;;;;;;;;;;;;13.65;63.59;92420.59;2037996;70;20208;-74
2023/05/01 07:15:13;;;;;;;;;;;;;;;14.34;62.06;92417.97;2038108;70;20162;-75
2023/05/01 07:17:38;;;;;;;;;;;;;;;14.63;60.62;92419.16;2041326;70;20055;-73
2023/05/01 07:20:04;;;;;;;;;;;;;;;14.58;60.07;92423.22;2037826;70;20075;-73
2023/05/01 07:22:29;;;;;;;;;;;;;;;14.57;59.49;92416.81;2041563;70;20424;-74
2023/05/01 07:24:55;;;;;;;;;;;;;;;15.00;58.13;92412.88;2041248;70;20127;-73
2023/05/01 07:27:20;;;;;;;;;;;;;;;14.64;59.56;92414.94;2041404;70;20507;-76
2023/05/01 07:29:46;;;;;;;;;;;;;;;15.05;59.09;92405.25;2041496;70;20058;-73
2023/05/01 07:32:11;;;;;;;;;;;;;;;15.02;58.23;92398.75;2041505;70;20119;-73
2023/05/01 07:34:37;;;;;;;;;;;;;;;15.39;57.05;92400.19;2041202;70;20056;-72
2023/05/01 07:37:03;;;;;;;;;;;;;;;15.50;57.99;92410.56;2037765;70;20148;-72
2023/05/01 07:39:29;;;;;;;;;;;;;;;15.75;57.07;92409.38;2037587;70;20151;-72
2023/05/01 07:41:58;;;;;;;;;;;;;;;15.89;57.47;92407.06;2034582;70;20147;-72
2023/05/01 07:44:23;;;;;;;;;;;;;;;15.92;56.79;92402.19;2037967;70;20052;-73
2023/05/01 07:46:49;;;;;;;;;;;;;;;16.11;56.44;92404.28;2038025;70;20054;-73
2023/05/01 07:49:14;;;;;;;;;;;;;;;16.16;56.20;92405.88;2038040;70;20052;-73
2023/05/01 07:51:41;;;;;;;;;;;;;;;16.01;55.82;92398.25;2034443;70;20583;-73
2023/05/01 07:54:06;;;;;;;;;;;;;;;15.58;56.88;92408.03;2037547;70;20052;-73
2023/05/01 07:56:32;;;;;;;;;;;;;;;15.33;56.36;92406.34;2034909;70;20055;-74
2023/05/01 07:58:57;;;;;;;;;;;;;;;15.28;57.28;92404.03;2034774;70;20060;-74
2023/05/01 08:01:23;;;;;;;;;;;;;;;15.41;57.41;92406.69;2031164;70;20053;-74
2023/05/01 08:03:48;;;;;;;;;;;;;;;15.42;56.80;92410.97;2034724;70;20049;-74
2023/05/01 08:06:14;;;;;;;;;;;;;;;15.03;58.05;92411.59;2034682;70;20084;-75
2023/05/01 08:08:39;;;;;;;;;;;;;;;15.96;55.67;92403.06;2034654;70;20127;-74
2023/05/01 08:11:05;;;;;;;;;;;;;;;16.10;57.05;92408.53;2034869;70;20493;-75
2023/05/01 08:13:30;;;;;;;;;;;;;;;16.42;55.82;92406.09;2034918;70;20073;-73
2023/05/01 08:15:59;;;;;;;;;;;;;;;16.06;55.10;92402.69;2034862;70;20063;-75
2023/05/01 08:18:25;;;;;;;;;;;;;;;15.64;56.50;92405.44;2034739;70;20524;-74
2023/05/01 08:20:50;;;;;;;;;;;;;;;16.08;56.08;92407.72;2034988;70;20165;-75
2023/05/01 08:23:16;;;;;;;;;;;;;;;16.20;55.75;92408.16;2034756;70;20055;-75
2023/05/01 08:25:46;;;;;;;;;;;;;;;16.48;55.58;92403.44;2034953;70;20083;-75
2023/05/01 08:28:12;;;;;;;;;;;;;;;16.58;55.73;92405.91;2031181;70;20072;-75
2023/05/01 08:30:37;;;;;;;;;;;;;;;15.79;58.09;92394.59;2034890;70;20049;-74
2023/05/01 08:33:03;;;;;;;;;;;;;;;16.02;57.65;92405.38;2036752;70;20404;-74
2023/05/01 08:35:28;;;;;;;;;;;;;;;16.43;55.85;92392.63;2033512;70;20060;-74
2023/05/01 08:37:54;;;;;;;;;;;;;;;17.05;55.27;92401.09;2033368;70;20060;-75
2023/05/01 08:40:20;;;;;;;;;;;;;;;16.48;55.30;92397.78;2037688;70;20055;-75
2023/05/01 08:42:46;;;;;;;;;;;;;;;16.30;56.01;92396.41;2035857;70;20179;-75
2023/05/01 08:45:12;;;;;;;;;;;;;;;16.66;55.84;92389.13;2035795;70;20489;-75
2023/05/01 08:47:38;;;;;;;;;;;;;;;16.32;57.49;92385.88;2035826;70;20056;-75
2023/05/01 08:50:08;;;;;;;;;;;;;;;16.51;55.58;92390.06;2037852;70;20044;-74
2023/05/01 08:52:35;;;;;;;;;;;;;;;16.39;57.27;92389.63;2038399;70;20076;-75
2023/05/01 08:55:01;;;;;;;;;;;;;;;16.52;56.55;92388.66;2038363;70;20507;-75
2023/05/01 08:57:29;;;;;;;;;;;;;;;17.48;54.99;92386.06;2038541;70;20072;-75
2023/05/01 08:59:55;;;;;;;;;;;;;;;17.63;54.63;92395.75;2038329;70;20072;-74
2023/05/01 09:02:22;;;;;;;;;;;;;;;16.76;55.92;92394.47;2038446;70;20503;-74
2023/05/01 09:04:48;;;;;;;;;;;;;;;17.59;54.74;92399.19;2038307;70;20121;-75
2023/05/01 09:07:14;;;;;;;;;;;;;;;17.77;53.81;92387.66;2038370;70;20048;-75
2023/05/01 09:09:39;;;;;;;;;;;;;;;17.97;53.53;92393.22;2038172;70;20048;-75
2023/05/01 09:12:22;;;;;;;;;;;;;;;17.63;54.51;92387.94;2036135;70;20045;-75
2023/05/01 09:14:48;;;;;;;;;;;;;;;17.86;53.75;92382.91;2035447;70;20462;-74
2023/05/01 09:17:14;;;;;;;;;;;;;;;17.65;53.58;92385.16;2035375;70;20053;-76
2023/05/01 09:19:40;;;;;;;;;;;;;;;18.48;53.16;92380.38;2035255;70;20048;-75
2023/05/01 09:22:05;;;;;;;;;;;;;;;17.40;54.09;92372.31;2031658;70;20056;-75
2023/05/01 09:24:32;;;;;;;;;;;;;;;18.10;52.80;92375.09;2034965;70;20087;-75
2023/05/01 09:26:57;;;;;;;;;;;;;;;17.89;53.20;92375.91;2034526;70;20067;-75
2023/05/01 09:29:36;;;;;;;;;;;;;;;18.18;52.21;92369.59;2035034;70;20052;-75
2023/05/01 09:32:19;;;;;;;;;;;;;;;18.56;50.83;92365.63;2034797;70;20098;-75
2023/05/01 09:34:45;;;;;;;;;;;;;;;18.25;51.54;92368.38;2037459;70;20147;-76
2023/05/01 09:37:26;;;;;;;;;;;;;;;18.93;51.24;92362.31;2036586;70;20056;-74
2023/05/01 09:40:00;;;;;;;;;;;;;;;19.92;49.22;92362.38;2036507;70;20083;-74
2023/05/01 09:42:25;;;;;;;;;;;;;;;19.84;48.80;92362.22;2035195;70;20056;-74
2023/05/01 09:44:51;;;;;;;;;;;;;;;19.33;48.52;92356.09;2037390;70;20147;-74
2023/05/01 09:47:21;;;;;;;;;;;;;;;19.02;48.53;92352.53;2037580;70;20056;-75
2023/05/01 09:49:48;;;;;;;;;;;;;;;19.77;47.98;92352.81;2038303;70;20052;-75
2023/05/01 09:52:14;;;;;;;;;;;;;;;19.66;48.40;92348.28;2035417;70;20448;-75
2023/05/01 09:54:40;;;;;;;;;;;;;;;20.74;46.72;92348.28;2038075;70;20584;-76
2023/05/01 09:57:05;;;;;;;;;;;;;;;19.79;45.47;92347.88;2032969;70;20056;-75
2023/05/01 09:59:33;;;;;;;;;;;;;;;20.60;45.32;92335.84;2036195;70;20170;-76
2023/05/01 10:01:58;;;;;;;;;;;;;;;20.25;44.50;92340.91;2037514;70;20060;-76
2023/05/01 10:04:33;;;;;;;;;;;;;;;21.01;44.00;92328.69;2035664;70;20156;-76
2023/05/01 10:07:09;;;;;;;;;;;;;;;20.80;44.44;92324.75;2034858;70;20060;-76
2023/05/01 10:09:35;;;;;;;;;;;;;;;20.71;44.76;92323.19;2034666;70;20056;-75
2023/05/01 10:12:00;;;;;;;;;;;;;;;21.05;44.83;92331.63;2034342;70;20048;-75
2023/05/01 10:14:28;;;;;;;;;;;;;;;21.21;44.22;92323.31;2034621;70;20056;-76
2023/05/01 10:16:56;;;;;;;;;;;;;;;20.48;44.47;92311.38;2034696;70;20071;-76
2023/05/01 10:19:22;;;;;;;;;;;;;;;20.63;44.63;92311.63;2034812;70;20097;-74
2023/05/01 10:21:47;;;;;;;;;;;;;;;20.99;44.05;92308.63;2031597;70;20553;-73
2023/05/01 10:24:15;;;;;;;;;;;;;;;21.25;43.23;92320.47;2035236;70;20143;-74
2023/05/01 10:26:41;;;;;;;;;;;;;;;21.33;43.86;92311.31;2035020;70;20050;-73
2023/05/01 10:29:07;;;;;;;;;;;;;;;20.59;44.44;92303.69;2034939;70;20053;-74
2023/05/01 10:31:32;;;;;;;;;;;;;;;21.08;44.23;92306.63;2034911;70;20052;-74
2023/05/01 10:34:01;;;;;;;;;;;;;;;21.00;43.56;92307.94;2034936;70;20128;-74
2023/05/01 10:36:36;;;;;;;;;;;;;;;20.76;43.52;92308.28;2034892;70;20059;-73
2023/05/01 10:39:02;;;;;;;;;;;;;;;20.34;44.18;92296.03;2034844;70;20088;-73
2023/05/01 10:41:47;;;;;;;;;;;;;;;20.41;45.02;92303.34;2035046;70;20532;-73
2023/05/01 10:44:19;;;;;;;;;;;;;;;20.83;43.98;92297.66;2035131;70;20158;-73
2023/05/01 10:46:45;;;;;;;;;;;;;;;21.61;43.11;92313.88;2035187;70;20053;-73
2023/05/01 10:49:11;;;;;;;;;;;;;;;21.76;40.41;92298.34;2035091;70;20424;-73
2023/05/01 10:52:02;;;;;;;;;;;;;;;21.83;40.41;92296.97;2035194;70;20090;-74
2023/05/01 10:54:29;;;;;;;;;;;;;;;22.03;39.67;92290.03;2035142;70;20406;-74
2023/05/01 10:56:56;;;;;;;;;;;;;;;21.48;41.47;92284.31;2034997;70;20473;-74
2023/05/01 10:59:21;;;;;;;;;;;;;;;21.48;40.29;92281.47;2035023;70;20247;-74
2023/05/01 11:01:47;;;;;;;;;;;;;;;21.38;40.77;92275.59;2035060;70;20504;-74
2023/05/01 11:04:22;;;;;;;;;;;;;;;21.88;41.19;92280.56;2034930;70;20067;-73
2023/05/01 11:06:57;;;;;;;;;;;;;;;20.68;41.72;92275.94;2034920;70;20084;-73
2023/05/01 11:09:41;;;;;;;;;;;;;;;21.14;40.63;92270.22;2034913;70;20405;-74
2023/05/01 11:12:08;;;;;;;;;;;;;;;20.54;41.10;92262.84;2035006;70;20053;-75
2023/05/01 11:14:52;;;;;;;;;;;;;;;20.35;42.25;92274.66;2034200;70;20057;-75
2023/05/01 11:17:38;;;;;;;;;;;;;;;21.45;41.29;92265.69;2035053;70;20055;-74
2023/05/01 11:20:04;;;;;;;;;;;;;;;23.21;37.63;92259.63;2034903;70;20155;-73
2023/05/01 11:22:30;;;;;;;;;;;;;;;21.29;39.80;92254.69;2035114;70;20142;-76
2023/05/01 11:24:56;;;;;;;;;;;;;;;24.97;34.42;92254.53;2034928;70;20091;-76
2023/05/01 11:27:21;;;;;;;;;;;;;;;24.62;33.70;92256.69;2035004;70;20493;-74
2023/05/01 11:29:48;;;;;;;;;;;;;;;22.52;37.62;92254.03;2035039;70;20048;-75
2023/05/01 11:32:17;;;;;;;;;;;;;;;23.93;36.49;92245.69;2035766;70;20155;-74
2023/05/01 11:34:43;;;;;;;;;;;;;;;26.08;32.65;92253.66;2034923;70;20067;-74
2023/05/01 11:37:08;;;;;;;;;;;;;;;24.29;32.87;92236.47;2036407;70;20135;-74
2023/05/01 11:39:34;;;;;;;;;;;;;;;24.22;34.02;92238.59;2037902;70;20147;-75
2023/05/01 11:42:06;;;;;;;;;;;;;;;25.01;32.63;92240.84;2037987;70;20052;-74
2023/05/01 11:44:36;;;;;;;;;;;;;;;23.47;35.50;92236.09;2037588;70;20148;-75
2023/05/01 11:47:01;;;;;;;;;;;;;;;24.04;35.30;92235.66;2033765;70;20508;-74
2023/05/01 11:49:27;;;;;;;;;;;;;;;25.48;32.07;92231.47;2035266;70;20052;-74
2023/05/01 11:51:57;;;;;;;;;;;;;;;24.09;33.38;92226.31;2037723;70;20549;-74
2023/05/01 11:54:22;;;;;;;;;;;;;;;23.27;35.36;92233.09;2037156;70;20103;-75
2023/05/01 11:56:56;;;;;;;;;;;;;;;23.46;34.59;92228.94;2035132;70;20056;-75
2023/05/01 11:59:21;;;;;;;;;;;;;;;22.33;36.51;92221.59;2036503;70;20553;-75
2023/05/01 12:01:47;;;;;;;;;;;;;;;21.25;38.58;92225.28;2036320;70;20059;-75
2023/05/01 12:04:21;;;;;;;;;;;;;;;22.54;36.92;92224.63;2037661;70;20091;-75
2023/05/01 12:06:47;;;;;;;;;;;;;;;21.40;37.40;92217.66;2038843;70;20119;-76
2023/05/01 12:09:16;;;;;;;;;;;;;;;22.39;36.85;92217.34;2036574;70;20064;-74
2023/05/01 12:11:42;;;;;;;;;;;;;;;21.67;38.37;92213.72;2035537;70;20099;-75
2023/05/01 12:14:08;;;;;;;;;;;;;;;21.94;38.15;92214.00;2038074;70;20056;-74
2023/05/01 12:16:34;;;;;;;;;;;;;;;21.34;38.60;92215.44;2035800;70;20152;-75
2023/05/01 12:18:59;;;;;;;;;;;;;;;22.32;37.72;92210.84;2038584;70;20136;-74
2023/05/01 12:21:26;;;;;;;;;;;;;;;20.22;39.96;92210.84;2038601;70;20052;-74
2023/05/01 12:23:53;;;;;;;;;;;;;;;19.90;40.83;92205.25;2038381;70;20111;-74
2023/05/01 12:26:22;;;;;;;;;;;;;;;21.14;39.21;92210.13;2037282;70;20140;-74
2023/05/01 12:28:58;;;;;;;;;;;;;;;20.93;38.59;92216.97;2037723;70;20052;-74
2023/05/01 12:31:24;;;;;;;;;;;;;;;19.81;41.44;92207.25;2038456;70;20079;-74
2023/05/01 12:33:57;;;;;;;;;;;;;;;20.87;39.14;92214.75;2038318;70;20060;-74
2023/05/01 12:36:27;;;;;;;;;;;;;;;20.75;38.34;92223.13;2038255;70;20232;-75
2023/05/01 12:38:55;;;;;;;;;;;;;;;21.06;38.54;92219.31;2038512;70;20454;-74
2023/05/01 12:41:30;;;;;;;;;;;;;;;20.29;40.21;92223.78;2038378;70;20064;-74
2023/05/01 12:43:56;;;;;;;;;;;;;;;19.98;38.92;92225.41;2034916;70;20095;-77
2023/05/01 12:46:22;;;;;;;;;;;;;;;20.24;39.36;92217.28;2038620;70;20151;-80
2023/05/01 12:48:48;;;;;;;;;;;;;;;19.76;40.51;92215.00;2038567;70;20481;-78
2023/05/01 12:51:20;;;;;;;;;;;;;;;19.77;41.11;92218.59;2038887;70;20501;-75